Time;durP1;ratioP1;P1;durP2;ratioP2;P2;SDS_P1;SDS_P2;PMS_P1;PMS_P2;Temp;Humidity;BMP_temperature;BMP_pressure;BME280_temperature;BME280_humidity;BME280_pressure;Samples;Min_cycle;Max_cycle;Signal;HPM_P1;HPM_P2
2023/02/11 00:01:36;;;;;;;67.23;24.50;;;;;;;3.62;100.00;102147.44;5007090;28;20041;-74
2023/02/11 00:04:03;;;;;;;77.32;24.02;;;;;;;3.66;100.00;102153.41;4989462;28;20447;-72
2023/02/11 00:06:29;;;;;;;50.88;20.85;;;;;;;3.69;100.00;102143.53;4989243;28;20483;-74
2023/02/11 00:08:55;;;;;;;65.63;22.77;;;;;;;3.66;100.00;102140.22;4989367;28;20116;-73
2023/02/11 00:11:21;;;;;;;;;;;;;;;3.70;100.00;102133.81;5007187;28;20037;-75
2023/02/11 00:13:47;;;;;;;52.78;20.02;;;;;;;3.64;100.00;102128.88;4989197;28;19924;-75
2023/02/11 00:16:18;;;;;;;50.58;19.15;;;;;;;3.72;100.00;102131.94;4989211;28;20021;-74
2023/02/11 00:18:44;;;;;;;56.08;20.85;;;;;;;3.74;100.00;102130.06;4987612;28;20045;-75
2023/02/11 00:21:13;;;;;;;51.63;21.45;;;;;;;3.74;100.00;102117.69;5006550;28;20040;-76
2023/02/11 00:23:39;;;;;;;60.63;21.60;;;;;;;3.72;100.00;102116.09;5006258;28;20049;-76
2023/02/11 00:26:15;;;;;;;43.50;17.80;;;;;;;3.73;100.00;102108.09;5005244;28;20510;-75
2023/02/11 00:28:42;;;;;;;46.40;17.40;;;;;;;3.72;100.00;102095.81;4971132;28;20034;-76
2023/02/11 00:31:09;;;;;;;50.40;19.95;;;;;;;3.74;100.00;102104.50;4972810;28;20554;-75
2023/02/11 00:33:36;;;;;;;38.80;16.67;;;;;;;3.75;100.00;102103.56;4987118;28;20036;-76
2023/02/11 00:36:06;;;;;;;41.15;15.40;;;;;;;3.85;100.00;102097.78;4988533;28;20220;-75
2023/02/11 00:38:32;;;;;;;44.85;15.45;;;;;;;3.88;100.00;102103.72;5006356;28;20034;-74
2023/02/11 00:40:57;;;;;;;37.70;15.30;;;;;;;3.91;100.00;102111.50;4988692;28;20038;-74
2023/02/11 00:43:23;;;;;;;39.13;16.38;;;;;;;3.89;100.00;102092.25;5006103;28;20033;-73
2023/02/11 00:45:49;;;;;;;34.65;16.27;;;;;;;3.88;100.00;102095.78;4988403;28;20029;-74
2023/02/11 00:48:14;;;;;;;40.70;15.90;;;;;;;3.95;100.00;102086.59;4988696;28;20388;-73
2023/02/11 00:50:40;;;;;;;34.87;15.23;;;;;;;3.93;100.00;102085.84;4999577;28;20038;-73
2023/02/11 00:53:05;;;;;;;39.97;16.52;;;;;;;3.96;100.00;102068.97;4988527;28;20038;-74
2023/02/11 00:55:31;;;;;;;34.67;14.70;;;;;;;3.97;100.00;102058.28;4985551;28;20506;-76
2023/02/11 00:57:57;;;;;;;35.30;15.25;;;;;;;3.96;100.00;102067.16;4970696;28;20497;-75
2023/02/11 01:00:23;;;;;;;39.80;16.15;;;;;;;3.98;100.00;102056.50;5005053;28;20117;-76
2023/02/11 01:02:48;;;;;;;30.67;15.15;;;;;;;4.02;100.00;102066.78;5004742;28;20642;-75
2023/02/11 01:05:13;;;;;;;38.73;15.13;;;;;;;4.04;100.00;102066.72;4988019;28;20046;-76
2023/02/11 01:07:39;;;;;;;40.47;15.18;;;;;;;4.15;100.00;102069.59;4988372;28;20049;-75
2023/02/11 01:10:05;;;;;;;37.97;15.47;;;;;;;4.14;100.00;102059.94;4988537;28;20037;-75
2023/02/11 01:12:30;;;;;;;36.50;14.50;;;;;;;4.19;100.00;102060.56;5005458;28;20171;-75
2023/02/11 01:14:57;;;;;;;34.03;14.75;;;;;;;4.21;100.00;102060.47;4987148;28;20042;-75
2023/02/11 01:17:22;;;;;;;33.97;15.48;;;;;;;4.25;100.00;102045.28;4988432;28;20096;-76
2023/02/11 01:19:48;;;;;;;33.75;14.82;;;;;;;4.20;100.00;102043.75;4988064;28;20045;-76
2023/02/11 01:22:14;;;;;;;34.03;15.57;;;;;;;4.22;100.00;102046.31;4988230;28;20510;-74
2023/02/11 01:24:39;;;;;;;34.30;13.47;;;;;;;4.20;100.00;102038.47;4971789;28;20289;-73
2023/02/11 01:27:06;;;;;;;32.60;16.42;;;;;;;4.32;100.00;102049.25;4971761;28;20406;-76
2023/02/11 01:29:32;;;;;;;45.90;17.48;;;;;;;4.32;100.00;102041.34;4987720;28;20026;-73
2023/02/11 01:31:59;;;;;;;47.40;19.60;;;;;;;4.31;100.00;102039.63;4987753;28;20038;-74
2023/02/11 01:34:24;;;;;;;36.90;16.83;;;;;;;4.37;100.00;102033.97;5005665;28;20546;-75
2023/02/11 01:36:49;;;;;;;56.43;19.70;;;;;;;4.39;100.00;102037.38;4987633;28;20088;-76
2023/02/11 01:39:15;;;;;;;39.90;18.13;;;;;;;4.49;100.00;102038.53;4987914;28;20037;-76
2023/02/11 01:41:40;;;;;;;55.42;19.83;;;;;;;4.49;100.00;102043.81;4998762;28;20396;-73
2023/02/11 01:44:26;;;;;;;43.80;20.70;;;;;;;4.53;100.00;102045.34;4987950;28;20057;-76
2023/02/11 01:46:52;;;;;;;48.75;21.02;;;;;;;4.57;100.00;102052.16;4986573;28;20046;-76
2023/02/11 01:49:22;;;;;;;43.33;20.35;;;;;;;4.61;100.00;102058.09;4987835;28;20029;-76
2023/02/11 01:51:59;;;;;;;57.55;19.38;;;;;;;4.56;100.00;102049.59;4970466;28;20065;-74
2023/02/11 01:57:21;;;;;;;58.58;19.92;;;;;;;4.61;100.00;102037.81;4999204;28;20041;-75
2023/02/11 02:00:14;;;;;;;56.70;19.60;;;;;;;4.65;100.00;102047.25;5003558;28;20030;-75
2023/02/11 02:02:57;;;;;;;57.63;20.40;;;;;;;4.67;100.00;102046.31;5004872;28;20080;-75
2023/02/11 02:05:41;;;;;;;58.53;18.67;;;;;;;4.71;100.00;102042.56;5001785;28;20327;-75
2023/02/11 02:08:12;;;;;;;64.22;19.00;;;;;;;4.68;100.00;102035.63;5000369;28;20574;-75
2023/02/11 02:10:41;;;;;;;66.40;18.55;;;;;;;4.65;100.00;102036.66;4984167;28;20386;-75
2023/02/11 02:13:07;;;;;;;64.25;18.73;;;;;;;4.72;100.00;102039.78;5002555;28;20068;-75
2023/02/11 02:15:34;;;;;;;62.63;19.07;;;;;;;4.74;100.00;102037.91;5000422;28;20045;-75
2023/02/11 02:18:10;;;;;;;59.80;19.02;;;;;;;4.75;100.00;102028.19;4983941;28;20040;-75
2023/02/11 02:21:06;;;;;;;57.42;19.05;;;;;;;4.74;100.00;102029.13;5000771;28;20490;-77
2023/02/11 02:23:40;;;;;;;65.43;19.50;;;;;;;4.82;100.00;102029.50;5009008;28;20042;-76
2023/02/11 02:26:27;;;;;;;64.85;19.98;;;;;;;4.78;100.00;102034.16;5017771;28;20068;-77
2023/02/11 02:29:18;;;;;;;65.50;18.83;;;;;;;4.79;100.00;102024.41;5006312;28;20265;-75
2023/02/11 02:32:21;;;;;;;66.32;18.55;;;;;;;4.82;100.00;102019.78;5000821;28;20120;-75
2023/02/11 02:35:19;;;;;;;68.78;18.20;;;;;;;4.86;100.00;102015.16;5001254;28;20565;-75
2023/02/11 02:38:00;;;;;;;57.95;17.30;;;;;;;4.83;100.00;101994.19;5017513;28;20415;-77
2023/02/11 02:40:36;;;;;;;65.50;20.48;;;;;;;4.83;100.00;101992.38;5001469;28;20096;-75
2023/02/11 02:43:03;;;;;;;60.95;19.05;;;;;;;4.79;100.00;101988.19;4996343;28;20376;-75
2023/02/11 02:45:29;;;;;;;60.10;21.48;;;;;;;4.83;100.00;101979.13;4999430;28;20557;-77
2023/02/11 02:47:55;;;;;;;55.50;17.30;;;;;;;4.84;100.00;101974.69;5003069;28;20038;-79
2023/02/11 02:50:28;;;;;;;61.80;19.17;;;;;;;4.80;100.00;101960.81;5001916;28;20034;-77
2023/02/11 02:53:19;;;;;;;69.63;20.02;;;;;;;4.82;100.00;101966.88;5002201;28;20101;-76
2023/02/11 02:55:59;;;;;;;62.38;20.23;;;;;;;4.85;100.00;101963.19;5002225;28;20104;-78
2023/02/11 02:58:42;;;;;;;63.22;20.45;;;;;;;4.87;100.00;101963.94;5001459;28;20044;-79
2023/02/11 03:01:14;;;;;;;65.72;18.90;;;;;;;4.88;100.00;101970.91;5000075;28;20224;-75
2023/02/11 03:04:01;;;;;;;63.22;20.77;;;;;;;4.90;100.00;101973.47;5000547;28;20421;-78
2023/02/11 03:06:33;;;;;;;72.70;19.65;;;;;;;4.95;100.00;101974.03;4984195;28;20475;-75
2023/02/11 03:09:14;;;;;;;75.25;21.52;;;;;;;4.96;100.00;101978.38;4999008;28;20042;-75
2023/02/11 03:11:39;;;;;;;79.80;20.30;;;;;;;4.89;100.00;101956.72;5017580;28;20121;-79
2023/02/11 03:14:09;;;;;;;68.60;21.90;;;;;;;5.02;100.00;101967.41;5019978;28;20140;-75
2023/02/11 03:16:37;;;;;;;71.55;19.35;;;;;;;5.00;100.00;101964.00;4999852;28;20446;-75
2023/02/11 03:19:28;;;;;;;70.18;18.38;;;;;;;5.02;100.00;101943.59;5020016;28;20087;-75
2023/02/11 03:21:54;;;;;;;67.93;21.60;;;;;;;5.06;100.00;101947.75;5002093;28;20049;-75
2023/02/11 03:24:33;;;;;;;66.30;19.55;;;;;;;5.04;100.00;101953.13;5005346;28;20041;-76
2023/02/11 03:27:08;;;;;;;72.05;19.48;;;;;;;5.03;100.00;101945.28;5002627;28;20045;-75
2023/02/11 03:29:39;;;;;;;74.93;21.48;;;;;;;5.03;100.00;101932.91;5001947;28;20506;-75
2023/02/11 03:32:16;;;;;;;62.05;20.85;;;;;;;5.11;100.00;101929.78;5002869;28;20037;-75
2023/02/11 03:34:56;;;;;;;57.60;18.67;;;;;;;5.20;100.00;101945.06;5021437;28;20037;-73
2023/02/11 03:37:48;;;;;;;65.88;19.70;;;;;;;5.20;100.00;101934.47;5005032;28;20053;-75
2023/02/11 03:40:19;;;;;;;63.70;20.40;;;;;;;5.25;100.00;101939.47;4998872;28;20111;-75
2023/02/11 03:42:53;;;;;;;57.47;18.60;;;;;;;5.25;100.00;101932.38;5020523;28;20038;-76
2023/02/11 03:45:22;;;;;;;81.65;19.42;;;;;;;5.23;100.00;101933.44;5004934;28;20044;-76
2023/02/11 03:47:53;;;;;;;68.78;19.15;;;;;;;5.19;100.00;101938.06;5004507;28;20053;-75
2023/02/11 03:50:20;;;;;;;74.68;19.05;;;;;;;5.21;100.00;101932.66;5022790;28;20041;-77
2023/02/11 03:52:48;;;;;;;72.07;19.38;;;;;;;5.28;100.00;101941.91;5004406;28;20037;-75
2023/02/11 03:55:19;;;;;;;74.78;19.15;;;;;;;5.35;100.00;101959.09;5023164;28;20037;-75
2023/02/11 03:57:46;;;;;;;57.97;19.08;;;;;;;5.35;100.00;101956.47;5005526;28;20129;-78
2023/02/11 04:00:12;;;;;;;70.78;19.02;;;;;;;5.35;100.00;101968.84;5005662;28;20116;-76
2023/02/11 04:02:39;;;;;;;58.15;18.52;;;;;;;5.32;100.00;101969.91;5006462;28;20041;-75
2023/02/11 04:05:06;;;;;;;57.97;17.83;;;;;;;5.31;100.00;101968.19;5023066;28;20116;-77
2023/02/11 04:07:32;;;;;;;54.10;18.67;;;;;;;5.38;100.00;101974.78;5022792;28;20397;-75
2023/02/11 04:09:58;;;;;;;57.08;17.95;;;;;;;5.38;100.00;101980.09;5022984;28;20041;-75
2023/02/11 04:12:24;;;;;;;55.15;18.85;;;;;;;5.44;100.00;101981.50;5003673;28;20139;-79
2023/02/11 04:14:49;;;;;;;66.13;19.63;;;;;;;5.47;100.00;101966.25;5003402;28;20112;-78
2023/02/11 04:17:15;;;;;;;54.33;18.43;;;;;;;5.53;100.00;101980.06;5008760;28;20502;-78
2023/02/11 04:19:40;;;;;;;48.13;16.77;;;;;;;5.52;100.00;101965.13;4988748;28;20413;-75
2023/02/11 04:22:06;;;;;;;62.03;19.17;;;;;;;5.45;100.00;101954.91;5022396;28;20115;-75
2023/02/11 04:24:31;;;;;;;65.63;20.53;;;;;;;5.47;100.00;101962.75;5002789;28;20272;-78
2023/02/11 04:26:57;;;;;;;51.30;17.13;;;;;;;5.55;100.00;101954.31;5004713;28;20610;-74
2023/02/11 04:29:22;;;;;;;61.63;19.95;;;;;;;5.56;100.00;101954.22;5021778;28;20041;-76
2023/02/11 04:31:48;;;;;;;51.83;17.92;;;;;;;5.53;100.00;101940.34;5003626;28;20104;-74
2023/02/11 04:34:14;;;;;;;49.07;17.63;;;;;;;5.54;100.00;101936.72;5022228;28;20550;-74
2023/02/11 04:36:39;;;;;;;49.92;16.50;;;;;;;5.43;100.00;101922.41;5004589;28;20757;-79
2023/02/11 04:39:05;;;;;;;61.17;20.38;;;;;;;5.47;100.00;101926.53;4992293;28;20505;-73
2023/02/11 04:41:30;;;;;;;43.67;17.07;;;;;;;5.47;100.00;101931.81;5002593;28;20498;-74
2023/02/11 04:43:56;;;;;;;53.90;17.73;;;;;;;5.42;100.00;101933.94;4988040;28;20402;-74
2023/02/11 04:46:21;;;;;;;63.83;19.17;;;;;;;5.48;100.00;101930.88;5003680;28;20076;-75
2023/02/11 04:48:46;;;;;;;64.68;19.60;;;;;;;5.47;100.00;101926.53;4986833;28;20045;-73
2023/02/11 04:51:12;;;;;;;43.20;15.70;;;;;;;5.55;100.00;101917.22;5006438;28;20025;-74
2023/02/11 04:53:37;;;;;;;52.13;18.53;;;;;;;5.59;100.00;101924.03;5002229;28;20037;-73
2023/02/11 04:56:03;;;;;;;51.83;17.77;;;;;;;5.53;100.00;101913.84;5008289;28;20632;-73
2023/02/11 04:58:28;;;;;;;47.60;16.35;;;;;;;5.53;100.00;101914.69;5002529;28;20037;-74
2023/02/11 05:00:53;;;;;;;51.47;17.53;;;;;;;5.52;100.00;101902.38;5006081;28;20118;-74
2023/02/11 05:03:19;;;;;;;43.07;18.70;;;;;;;5.55;100.00;101909.28;5003946;28;20052;-78
2023/02/11 05:05:44;;;;;;;52.72;19.08;;;;;;;5.55;100.00;101902.19;5002226;28;20045;-76
2023/02/11 05:08:10;;;;;;;55.87;17.80;;;;;;;5.59;100.00;101895.72;5004092;28;20052;-73
2023/02/11 05:10:36;;;;;;;62.35;18.95;;;;;;;5.59;100.00;101886.94;5004065;28;20068;-73
2023/02/11 05:13:02;;;;;;;62.70;20.98;;;;;;;5.58;100.00;101895.84;5005792;28;20040;-73
2023/02/11 05:15:28;;;;;;;54.95;20.50;;;;;;;5.52;100.00;101880.34;5018918;28;20037;-76
2023/02/11 05:17:55;;;;;;;51.78;19.70;;;;;;;5.57;100.00;101873.81;5004134;28;20335;-78
2023/02/11 05:20:20;;;;;;;53.85;20.38;;;;;;;5.54;100.00;101862.56;5023399;28;20029;-79
2023/02/11 05:22:46;;;;;;;57.35;18.23;;;;;;;5.54;100.00;101868.69;5004171;28;20046;-73
2023/02/11 05:25:11;;;;;;;56.47;19.45;;;;;;;5.58;100.00;101866.69;5021038;28;20044;-74
2023/02/11 05:27:37;;;;;;;58.58;19.20;;;;;;;5.54;100.00;101863.41;5018961;28;20037;-75
2023/02/11 05:30:04;;;;;;;67.83;20.70;;;;;;;5.56;100.00;101863.31;5003531;28;20038;-73
2023/02/11 05:32:29;;;;;;;71.38;21.08;;;;;;;5.53;100.00;101867.00;5005793;28;20298;-78
2023/02/11 05:34:54;;;;;;;60.37;21.60;;;;;;;5.50;100.00;101852.16;5004797;28;20033;-74
2023/02/11 05:37:20;;;;;;;63.17;19.97;;;;;;;5.55;100.00;101856.28;5020776;28;20087;-74
2023/02/11 05:39:45;;;;;;;60.83;20.93;;;;;;;5.55;100.00;101848.34;5019875;28;20497;-74
2023/02/11 05:42:11;;;;;;;58.90;18.65;;;;;;;5.50;100.00;101851.31;5003526;28;20038;-73
2023/02/11 05:44:37;;;;;;;58.17;21.60;;;;;;;5.49;100.00;101861.06;5018227;28;20030;-73
2023/02/11 05:47:02;;;;;;;58.70;20.40;;;;;;;5.50;100.00;101873.38;5003418;28;20029;-73
2023/02/11 05:49:27;;;;;;;67.47;21.70;;;;;;;5.52;100.00;101890.94;4988056;28;20038;-74
2023/02/11 05:51:53;;;;;;;60.17;22.17;;;;;;;5.56;100.00;101900.38;4986538;28;20338;-73
2023/02/11 05:54:18;;;;;;;64.27;19.83;;;;;;;5.56;100.00;101913.63;5002957;28;20067;-74
2023/02/11 05:56:44;;;;;;;60.63;20.27;;;;;;;5.60;100.00;101931.03;5001504;28;20053;-77
2023/02/11 05:59:12;;;;;;;60.08;20.42;;;;;;;5.60;100.00;101920.44;5005414;28;20124;-75
2023/02/11 06:01:38;;;;;;;65.07;22.20;;;;;;;5.54;100.00;101926.97;5000551;28;20092;-74
2023/02/11 06:04:03;;;;;;;66.07;20.83;;;;;;;5.55;100.00;101925.16;4987335;28;20052;-74
2023/02/11 06:06:28;;;;;;;56.47;20.07;;;;;;;5.62;100.00;101923.81;5020572;28;20122;-75
2023/02/11 06:08:55;;;;;;;61.53;20.03;;;;;;;5.56;100.00;101914.47;5020886;28;20040;-78
2023/02/11 06:11:20;;;;;;;66.95;21.30;;;;;;;5.59;100.00;101918.72;4986066;28;20037;-73
2023/02/11 06:13:46;;;;;;;73.63;22.40;;;;;;;5.59;100.00;101897.53;5001315;28;20053;-73
2023/02/11 06:16:11;;;;;;;69.83;21.17;;;;;;;5.56;100.00;101908.34;4986754;28;20283;-73
2023/02/11 06:18:36;;;;;;;69.17;21.90;;;;;;;5.60;100.00;101917.78;5002908;28;20030;-74
2023/02/11 06:21:06;;;;;;;53.57;19.50;;;;;;;5.68;100.00;101934.84;4986730;28;20553;-73
2023/02/11 06:23:32;;;;;;;74.60;21.83;;;;;;;5.63;100.00;101933.47;4984738;28;20017;-73
2023/02/11 06:26:04;;;;;;;62.70;19.77;;;;;;;5.65;100.00;101947.47;5006648;28;20405;-76
2023/02/11 06:28:30;;;;;;;73.10;22.05;;;;;;;5.69;100.00;101938.38;5020380;28;20490;-73
2023/02/11 06:30:56;;;;;;;60.00;19.42;;;;;;;5.62;100.00;101927.34;5003156;28;20025;-76
2023/02/11 06:33:22;;;;;;;58.53;20.63;;;;;;;5.65;100.00;101915.69;5001905;28;20038;-76
2023/02/11 06:35:47;;;;;;;64.20;21.33;;;;;;;5.63;100.00;101915.78;5001625;28;20103;-75
2023/02/11 06:38:12;;;;;;;60.27;18.80;;;;;;;5.63;100.00;101909.63;5002945;28;20510;-75
2023/02/11 06:40:38;;;;;;;45.53;19.93;;;;;;;5.71;100.00;101928.50;5000273;28;20300;-76
2023/02/11 06:43:03;;;;;;;53.27;18.93;;;;;;;5.67;100.00;101929.69;5003269;28;20044;-76
2023/02/11 06:45:28;;;;;;;50.07;18.23;;;;;;;5.76;100.00;101937.00;5001447;28;20063;-79
2023/02/11 06:47:54;;;;;;;53.03;18.63;;;;;;;5.74;100.00;101946.88;5003364;28;20042;-76
2023/02/11 06:50:19;;;;;;;51.57;18.23;;;;;;;5.68;100.00;101940.16;5021166;28;20036;-76
2023/02/11 06:52:45;;;;;;;49.73;17.63;;;;;;;5.65;100.00;101937.72;5018939;28;20026;-76
2023/02/11 06:55:10;;;;;;;49.33;18.40;;;;;;;5.68;100.00;101944.63;4986735;28;20088;-76
2023/02/11 06:57:35;;;;;;;59.27;19.43;;;;;;;5.71;100.00;101952.34;5002890;28;20285;-75
2023/02/11 07:00:01;;;;;;;46.53;19.15;;;;;;;5.78;100.00;101945.69;4991536;28;20038;-77
2023/02/11 07:02:26;;;;;;;51.55;19.30;;;;;;;5.83;100.00;101943.59;5023838;28;20081;-77
2023/02/11 07:04:52;;;;;;;41.43;17.50;;;;;;;5.79;100.00;101930.66;5024167;28;20068;-76
2023/02/11 07:07:17;;;;;;;45.37;16.73;;;;;;;5.80;100.00;101933.19;5007482;28;20324;-78
2023/02/11 07:09:42;;;;;;;45.43;16.03;;;;;;;5.76;100.00;101934.38;5005642;28;20061;-77
2023/02/11 07:12:09;;;;;;;37.40;15.60;;;;;;;5.79;100.00;101933.31;4991199;28;20061;-77
2023/02/11 07:14:34;;;;;;;;;;;;;;;5.83;100.00;101938.31;5005545;28;20382;-74
2023/02/11 07:16:59;;;;;;;48.53;16.75;;;;;;;5.89;100.00;101943.19;5007705;28;20008;-77
2023/02/11 07:19:25;;;;;;;39.43;14.00;;;;;;;5.83;100.00;101943.59;4991953;28;20037;-77
2023/02/11 07:21:50;;;;;;;39.50;15.27;;;;;;;5.87;100.00;101945.06;5006464;28;20041;-77
2023/02/11 07:24:16;;;;;;;46.53;15.50;;;;;;;5.98;100.00;101943.56;4991074;28;20045;-77
2023/02/11 07:26:41;;;;;;;44.97;14.45;;;;;;;6.02;100.00;101950.34;5021593;28;20026;-76
2023/02/11 07:29:06;;;;;;;35.67;14.50;;;;;;;6.06;100.00;101955.34;5023795;28;20366;-76
2023/02/11 07:31:32;;;;;;;36.43;14.10;;;;;;;6.03;100.00;101955.53;4989211;28;20037;-77
2023/02/11 07:33:59;;;;;;;37.27;13.80;;;;;;;6.00;100.00;101952.25;5023408;28;20033;-76
2023/02/11 07:36:26;;;;;;;30.48;13.18;;;;;;;6.04;100.00;101956.38;5004921;28;20049;-76
2023/02/11 07:38:52;;;;;;;47.00;15.60;;;;;;;6.01;100.00;101972.50;4989247;28;20059;-76
2023/02/11 07:41:20;;;;;;;33.93;13.13;;;;;;;6.03;100.00;101965.31;5005564;28;20402;-78
2023/02/11 07:43:45;;;;;;;34.60;14.80;;;;;;;6.05;100.00;101976.66;5004255;28;20037;-78
2023/02/11 07:46:13;;;;;;;43.63;14.15;;;;;;;6.06;100.00;101981.88;5005783;28;20041;-75
2023/02/11 07:48:39;;;;;;;36.22;14.13;;;;;;;6.03;100.00;101997.13;5003526;28;20088;-78
2023/02/11 07:51:08;;;;;;;41.10;15.53;;;;;;;6.08;100.00;101995.00;5005483;28;20025;-76
2023/02/11 07:53:35;;;;;;;40.35;13.23;;;;;;;6.02;100.00;101998.09;5032518;22;20498;-89
2023/02/11 07:56:01;;;;;;;;;;;;;;;6.10;100.00;101999.25;5002631;28;20399;-88
2023/02/11 07:58:28;;;;;;;51.08;15.20;;;;;;;6.08;100.00;102001.16;5016475;28;19912;-87
2023/02/11 08:00:54;;;;;;;38.65;14.15;;;;;;;6.07;100.00;102009.22;4999837;28;20040;-88
2023/02/11 08:03:19;;;;;;;49.13;14.93;;;;;;;6.04;100.00;102012.06;5016077;28;20026;-87
2023/02/11 08:05:44;;;;;;;42.30;13.60;;;;;;;6.03;100.00;102005.91;4998002;28;20033;-88
2023/02/11 08:08:09;;;;;;;47.77;15.67;;;;;;;6.12;100.00;102015.91;4994601;28;20042;-88
2023/02/11 08:10:35;;;;;;;42.07;14.47;;;;;;;6.17;100.00;102012.09;5014538;28;20043;-86
2023/02/11 08:13:01;;;;;;;48.83;15.40;;;;;;;6.04;100.00;102009.41;4998317;28;20120;-87
2023/02/11 08:15:26;;;;;;;38.63;14.53;;;;;;;6.10;100.00;102015.16;5014504;28;20398;-87
2023/02/11 08:17:51;;;;;;;46.37;15.30;;;;;;;6.10;100.00;102003.72;4996093;28;20114;-85
2023/02/11 08:20:18;;;;;;;46.83;15.60;;;;;;;6.08;100.00;101995.84;5014312;28;20374;-87
2023/02/11 08:22:43;;;;;;;64.35;15.70;;;;;;;6.04;100.00;101998.81;4997430;28;20033;-87
2023/02/11 08:25:08;;;;;;;52.43;15.97;;;;;;;6.02;100.00;101990.13;5013824;28;20584;-88
2023/02/11 08:27:34;;;;;;;44.83;17.43;;;;;;;6.08;100.00;101990.53;4997720;28;20497;-87
2023/02/11 08:30:00;;;;;;;54.23;14.27;;;;;;;6.04;100.00;101999.69;5013933;28;20052;-86
2023/02/11 08:32:26;;;;;;;43.13;16.23;;;;;;;6.09;100.00;101999.38;4997321;28;20064;-87
2023/02/11 08:34:52;;;;;;;49.10;15.50;;;;;;;6.05;100.00;102019.91;4997485;28;20026;-87
2023/02/11 08:37:18;;;;;;;43.38;15.88;;;;;;;6.01;100.00;102015.75;5013855;28;20470;-88
2023/02/11 08:39:46;;;;;;;48.47;15.90;;;;;;;6.04;100.00;102027.97;4997393;28;20018;-87
2023/02/11 08:42:12;;;;;;;46.65;16.00;;;;;;;6.05;100.00;102032.34;4993893;28;20045;-87
2023/02/11 08:44:37;;;;;;;43.50;16.15;;;;;;;6.09;100.00;102033.84;5013818;28;20033;-87
2023/02/11 08:47:02;;;;;;;54.03;16.20;;;;;;;6.08;100.00;102032.13;4996973;28;20044;-87
2023/02/11 08:49:29;;;;;;;46.67;16.80;;;;;;;6.06;100.00;102028.72;4997529;28;20122;-87
2023/02/11 08:51:55;;;;;;;45.38;16.08;;;;;;;6.03;100.00;102036.88;5013117;28;20702;-87
2023/02/11 08:54:20;;;;;;;47.25;15.27;;;;;;;6.08;100.00;102038.28;5031066;28;20029;-89
2023/02/11 08:56:50;;;;;;;41.40;17.07;;;;;;;6.06;100.00;102044.63;5012756;28;20049;-85
2023/02/11 08:59:16;;;;;;;42.03;15.63;;;;;;;6.16;100.00;102056.34;5013174;28;20037;-87
2023/02/11 09:01:42;;;;;;;;;;;;;;;6.12;100.00;102060.97;5013264;28;20044;-87
2023/02/11 09:04:09;;;;;;;43.08;13.43;;;;;;;6.16;100.00;102050.16;5005651;28;19944;-87
2023/02/11 09:06:34;;;;;;;;;;;;;;;6.17;100.00;102039.47;4996734;28;20033;-87
2023/02/11 09:09:00;;;;;;;38.92;15.02;;;;;;;6.17;100.00;102039.47;4993602;28;19917;-87
2023/02/11 09:11:34;;;;;;;40.55;14.15;;;;;;;6.13;100.00;102030.88;4992539;28;20037;-87
2023/02/11 09:14:01;;;;;;;50.15;14.88;;;;;;;6.18;100.00;102038.53;4988787;28;20045;-87
2023/02/11 09:16:30;;;;;;;48.28;15.65;;;;;;;6.16;100.00;102045.72;5011864;28;20108;-87
2023/02/11 09:18:57;;;;;;;41.63;15.55;;;;;;;6.26;100.00;102051.28;4996216;28;20105;-87
2023/02/11 09:21:23;;;;;;;51.67;14.48;;;;;;;6.23;100.00;102062.94;5011909;28;20040;-85
2023/02/11 09:23:49;;;;;;;43.10;15.05;;;;;;;6.27;100.00;102056.44;4996318;28;20029;-85
2023/02/11 09:26:20;;;;;;;35.38;14.07;;;;;;;6.26;100.00;102052.13;5012580;28;20556;-87
2023/02/11 09:28:46;;;;;;;41.53;12.05;;;;;;;6.56;100.00;102061.63;4996679;28;20037;-86
2023/02/11 09:31:14;;;;;;;30.08;11.85;;;;;;;6.78;100.00;102061.00;4996541;28;20021;-86
2023/02/11 09:33:47;;;;;;;36.22;12.27;;;;;;;6.60;100.00;102060.44;4993605;28;20065;-89
2023/02/11 09:36:17;;;;;;;36.03;13.30;;;;;;;6.41;100.00;102060.00;5031529;28;20068;-88
2023/02/11 09:38:43;;;;;;;36.05;13.98;;;;;;;6.37;100.00;102054.06;4997685;28;20030;-88
2023/02/11 09:41:23;;;;;;;;;;;;;;;6.38;100.00;102054.91;5017951;28;20037;-86
2023/02/11 09:43:53;;;;;;;43.28;14.90;;;;;;;6.41;100.00;102062.66;5011617;28;20341;-87
2023/02/11 09:46:19;;;;;;;38.45;12.45;;;;;;;6.33;100.00;102064.00;4997149;28;20023;-87
2023/02/11 09:48:46;;;;;;;31.00;12.13;;;;;;;6.34;100.00;102071.03;4991815;28;20066;-86
2023/02/11 09:51:19;;;;;;;27.88;12.50;;;;;;;6.36;100.00;102078.88;4997240;28;20452;-86
2023/02/11 09:53:47;;;;;;;39.67;12.10;;;;;;;6.34;100.00;102065.72;5027684;28;20108;-85
2023/02/11 09:56:14;;;;;;;34.15;11.70;;;;;;;6.49;100.00;102081.56;5015502;28;20026;-86
2023/02/11 09:58:42;;;;;;;29.83;11.32;;;;;;;6.45;100.00;102072.94;4999285;28;20121;-86
2023/02/11 10:01:22;;;;;;;40.72;11.95;;;;;;;6.50;100.00;102070.00;5015468;28;20060;-85
2023/02/11 10:04:05;;;;;;;36.00;11.63;;;;;;;6.55;100.00;102067.88;4998176;28;20609;-86
2023/02/11 10:07:01;;;;;;;37.75;12.88;;;;;;;6.51;100.00;102074.34;5015738;28;20041;-85
2023/02/11 10:09:29;;;;;;;36.72;11.45;;;;;;;6.54;100.00;102074.97;5012049;28;20504;-84
2023/02/11 10:12:18;;;;;;;28.58;10.73;;;;;;;6.54;100.00;102076.78;4999292;28;20151;-84
2023/02/11 10:15:02;;;;;;;43.55;12.07;;;;;;;6.65;100.00;102092.84;4997184;28;20037;-86
2023/02/11 10:17:36;;;;;;;38.90;11.43;;;;;;;6.64;100.00;102079.66;5023397;28;20044;-85
2023/02/11 10:20:36;;;;;;;33.70;12.35;;;;;;;6.68;100.00;102089.13;5036449;28;20037;-84
2023/02/11 10:23:14;;;;;;;37.00;12.45;;;;;;;6.62;100.00;102086.88;5010537;28;20482;-84
2023/02/11 10:25:44;;;;;;;21.95;9.07;;;;;;;6.74;100.00;102089.56;4996955;28;20092;-86
2023/02/11 10:28:23;;;;;;;27.88;10.93;;;;;;;6.78;100.00;102102.63;4998675;28;20045;-86
2023/02/11 10:31:14;;;;;;;36.45;11.07;;;;;;;6.76;100.00;102100.91;5013477;28;20037;-84
2023/02/11 10:34:03;;;;;;;26.83;10.63;;;;;;;6.78;100.00;102105.28;5017722;28;20045;-87
2023/02/11 10:36:32;;;;;;;32.65;9.90;;;;;;;6.85;100.00;102090.63;5017677;28;20117;-84
2023/02/11 10:38:59;;;;;;;26.45;9.75;;;;;;;6.82;100.00;102088.19;5001928;28;20466;-84
2023/02/11 10:41:35;;;;;;;25.23;9.90;;;;;;;6.80;100.00;102090.09;5000832;28;20104;-86
2023/02/11 10:44:00;;;;;;;36.78;12.07;;;;;;;6.84;100.00;102094.25;5001762;28;20040;-83
2023/02/11 10:46:31;;;;;;;33.13;10.77;;;;;;;6.82;100.00;102106.78;4997865;28;20022;-84
2023/02/11 10:48:56;;;;;;;25.52;10.60;;;;;;;6.81;100.00;102105.91;5001093;28;20040;-83
2023/02/11 10:51:25;;;;;;;43.33;11.27;;;;;;;6.84;100.00;102111.03;5001674;28;20116;-84
2023/02/11 10:54:02;;;;;;;37.00;10.40;;;;;;;6.91;100.00;102120.25;5007236;28;20296;-84
2023/02/11 10:56:30;;;;;;;35.28;11.70;;;;;;;6.96;100.00;102109.31;5000524;28;20398;-87
2023/02/11 10:59:13;;;;;;;31.23;10.00;;;;;;;7.02;100.00;102118.66;5001172;28;20049;-85
2023/02/11 11:01:55;;;;;;;31.55;10.85;;;;;;;7.01;100.00;102112.50;5017252;28;20122;-87
2023/02/11 11:04:29;;;;;;;28.80;7.25;;;;;;;7.07;100.00;102113.88;5001561;28;20398;-84
2023/02/11 11:07:20;;;;;;;23.42;6.40;;;;;;;7.02;100.00;102113.34;5014448;28;20043;-86
2023/02/11 11:09:50;;;;;;;22.25;5.90;;;;;;;7.09;100.00;102127.91;4994092;28;20053;-85
2023/02/11 11:12:45;;;;;;;20.02;5.28;;;;;;;7.10;100.00;102126.97;5001475;28;20033;-85
2023/02/11 11:15:17;;;;;;;22.35;5.20;;;;;;;7.11;100.00;102124.19;4941792;28;20142;-86
2023/02/11 11:17:44;;;;;;;19.83;4.50;;;;;;;7.11;100.00;102123.34;4957921;28;20046;-86
2023/02/11 11:20:18;;;;;;;20.60;5.07;;;;;;;7.22;100.00;102117.28;4974556;28;20035;-86
2023/02/11 11:22:44;;;;;;;17.83;4.30;;;;;;;7.21;100.00;102113.78;4942347;28;20039;-86
2023/02/11 11:25:29;;;;;;;19.63;5.40;;;;;;;7.22;100.00;102104.84;4941548;28;20034;-87